createdAt,value
2018-12-14T00:01:11.871Z,19.67
2018-12-14T00:03:40.643Z,18.63
2018-12-14T00:06:09.193Z,17.27
2018-12-14T00:08:37.885Z,15.53
2018-12-14T00:11:06.700Z,19.00
2018-12-14T00:13:35.380Z,17.27
2018-12-14T00:16:03.986Z,16.80
2018-12-14T00:18:32.528Z,16.00
2018-12-14T00:21:01.060Z,19.23
2018-12-14T00:23:29.618Z,15.77
2018-12-14T00:25:58.206Z,17.73
2018-12-14T00:28:26.890Z,20.70
2018-12-14T00:30:55.439Z,17.47
2018-12-14T00:33:23.950Z,16.10
2018-12-14T00:35:52.476Z,18.00
2018-12-14T00:38:20.997Z,15.57
2018-12-14T00:40:49.806Z,20.40
2018-12-14T00:43:18.403Z,17.43
2018-12-14T00:45:47.112Z,19.20
2018-12-14T00:48:15.900Z,18.40
2018-12-14T00:50:46.631Z,18.37
2018-12-14T00:53:15.440Z,16.07
2018-12-14T00:55:44.527Z,17.13
2018-12-14T00:58:13.054Z,17.17
2018-12-14T01:00:41.724Z,17.27
2018-12-14T01:03:10.256Z,17.03
2018-12-14T01:05:38.843Z,17.90
2018-12-14T01:08:07.406Z,15.03
2018-12-14T01:10:36.192Z,20.20
2018-12-14T01:13:04.723Z,17.10
2018-12-14T01:15:33.292Z,18.63
2018-12-14T01:18:01.802Z,16.90
2018-12-14T01:20:30.314Z,18.47
2018-12-14T01:22:58.866Z,17.30
2018-12-14T01:25:27.400Z,16.53
2018-12-14T01:27:55.913Z,18.30
2018-12-14T01:30:24.432Z,18.80
2018-12-14T01:32:52.968Z,18.20
2018-12-14T01:35:21.471Z,20.20
2018-12-14T01:37:49.995Z,16.53
2018-12-14T01:40:18.535Z,16.30
2018-12-14T01:42:47.193Z,15.83
2018-12-14T01:45:16.064Z,17.53
2018-12-14T01:47:44.625Z,14.50
2018-12-14T01:50:13.596Z,16.17
2018-12-14T01:52:42.325Z,15.43
2018-12-14T01:55:11.898Z,14.03
2018-12-14T01:57:41.807Z,15.60
2018-12-14T02:00:12.106Z,18.93
2018-12-14T02:02:41.758Z,14.60
2018-12-14T02:05:10.685Z,14.50
2018-12-14T02:07:39.808Z,14.50
2018-12-14T02:10:08.735Z,16.00
2018-12-14T02:12:37.815Z,17.00
2018-12-14T02:15:06.892Z,16.40
2018-12-14T02:17:36.170Z,13.47
2018-12-14T02:20:05.602Z,16.17
2018-12-14T02:22:35.197Z,17.50
2018-12-14T02:25:04.206Z,18.67
2018-12-14T02:27:32.757Z,16.77
2018-12-14T02:30:11.368Z,16.07
2018-12-14T02:32:40.183Z,15.03
2018-12-14T02:35:09.024Z,18.03
2018-12-14T02:37:37.669Z,13.70
2018-12-14T02:40:07.039Z,16.37
2018-12-14T02:42:35.707Z,14.40
2018-12-14T02:45:04.629Z,16.33
2018-12-14T02:47:33.268Z,16.70
2018-12-14T02:50:01.868Z,17.20
2018-12-14T02:52:30.556Z,17.53
2018-12-14T02:54:59.185Z,15.53
2018-12-14T02:57:27.852Z,12.87
2018-12-14T03:00:01.414Z,15.67
2018-12-14T03:02:36.098Z,16.10
2018-12-14T03:05:25.998Z,15.43
2018-12-14T03:07:54.628Z,17.57
2018-12-14T03:10:23.138Z,11.93
2018-12-14T03:12:51.689Z,15.63
2018-12-14T03:15:20.249Z,13.97
2018-12-14T03:17:48.856Z,14.00
2018-12-14T03:20:17.446Z,14.23
2018-12-14T03:22:46.096Z,13.43
2018-12-14T03:25:14.634Z,12.77
2018-12-14T03:27:43.209Z,14.43
2018-12-14T03:30:11.802Z,14.57
2018-12-14T03:32:40.567Z,13.00
2018-12-14T03:35:09.212Z,12.33
2018-12-14T03:37:38.145Z,14.20
2018-12-14T03:40:07.103Z,17.20
2018-12-14T03:42:35.646Z,17.37
2018-12-14T03:45:04.893Z,12.60
2018-12-14T03:47:34.369Z,13.60
2018-12-14T03:50:03.019Z,14.40
2018-12-14T03:52:31.592Z,15.07
2018-12-14T03:55:00.166Z,14.23
2018-12-14T03:57:28.749Z,11.83
2018-12-14T03:59:57.385Z,11.23
2018-12-14T04:02:25.959Z,12.27
2018-12-14T04:04:54.611Z,12.67
2018-12-14T04:07:23.203Z,13.50
2018-12-14T04:09:51.754Z,12.87
2018-12-14T04:12:20.324Z,12.37
2018-12-14T04:14:48.887Z,12.47
2018-12-14T04:17:17.418Z,14.33
2018-12-14T04:19:46.014Z,12.37
2018-12-14T04:22:14.563Z,13.83
2018-12-14T04:24:43.223Z,12.43
2018-12-14T04:27:11.842Z,15.27
2018-12-14T04:29:40.627Z,13.97
2018-12-14T04:32:09.236Z,15.23
2018-12-14T04:34:37.827Z,13.40
2018-12-14T04:37:06.423Z,13.43
2018-12-14T04:39:35.006Z,13.90
2018-12-14T04:42:03.556Z,15.40
2018-12-14T04:44:32.074Z,14.37
2018-12-14T04:47:00.843Z,12.27
2018-12-14T04:49:29.744Z,13.17
2018-12-14T04:51:58.356Z,14.17
2018-12-14T04:54:27.087Z,14.43
2018-12-14T04:56:55.603Z,16.63
2018-12-14T04:59:24.163Z,13.80
2018-12-14T05:01:52.760Z,15.83
2018-12-14T05:04:21.307Z,16.27
2018-12-14T05:06:50.070Z,16.63
2018-12-14T05:09:18.638Z,16.10
2018-12-14T05:11:47.244Z,15.50
2018-12-14T05:14:16.670Z,15.50
2018-12-14T05:16:45.436Z,15.80
2018-12-14T05:19:14.193Z,18.77
2018-12-14T05:21:43.085Z,16.20
2018-12-14T05:24:11.687Z,15.13
2018-12-14T05:26:40.263Z,17.17
2018-12-14T05:29:08.886Z,17.20
2018-12-14T05:31:37.514Z,16.57
2018-12-14T05:34:06.151Z,15.97
2018-12-14T05:36:34.877Z,17.27
2018-12-14T05:39:04.212Z,15.40
2018-12-14T05:41:32.849Z,16.33
2018-12-14T05:44:01.468Z,16.97
2018-12-14T05:46:30.047Z,18.40
2018-12-14T05:48:58.628Z,17.00
2018-12-14T05:51:27.130Z,21.02
2018-12-14T05:53:55.767Z,16.83
2018-12-14T05:56:24.862Z,17.73
2018-12-14T05:58:53.585Z,15.43
2018-12-14T06:04:08.962Z,17.70
2018-12-14T06:06:45.155Z,16.70
2018-12-14T06:09:14.862Z,18.00
2018-12-14T06:11:43.662Z,19.00
2018-12-14T06:14:32.190Z,19.00
2018-12-14T06:17:15.697Z,15.93
2018-12-14T06:19:53.621Z,17.00
2018-12-14T06:22:22.169Z,16.80
2018-12-14T06:24:50.806Z,17.97
2018-12-14T06:27:19.716Z,19.47
2018-12-14T06:29:48.260Z,18.47
2018-12-14T06:32:16.954Z,17.40
2018-12-14T06:34:45.864Z,16.63
2018-12-14T06:37:15.022Z,17.17
2018-12-14T06:39:43.686Z,16.00
2018-12-14T06:42:12.324Z,15.80
2018-12-14T06:44:40.922Z,18.17
2018-12-14T06:47:10.459Z,15.57
2018-12-14T06:49:39.014Z,19.73
2018-12-14T06:52:07.557Z,17.87
2018-12-14T06:54:36.141Z,17.97
2018-12-14T06:57:04.864Z,16.70
2018-12-14T06:59:33.455Z,19.23
2018-12-14T07:02:01.994Z,17.10
2018-12-14T07:04:31.505Z,16.23
2018-12-14T07:07:04.134Z,15.90
2018-12-14T07:09:30.758Z,16.23
2018-12-14T07:11:59.322Z,18.33
2018-12-14T07:14:27.852Z,15.90
2018-12-14T07:16:58.164Z,18.93
2018-12-14T07:19:26.825Z,15.73
2018-12-14T07:21:55.398Z,16.53
2018-12-14T07:24:23.965Z,15.93
2018-12-14T07:26:52.855Z,18.37
2018-12-14T07:29:21.753Z,17.90
2018-12-14T07:31:50.333Z,19.77
2018-12-14T07:34:19.165Z,16.40
2018-12-14T07:36:47.742Z,19.20
2018-12-14T07:39:16.620Z,18.00
2018-12-14T07:41:45.243Z,20.93
2018-12-14T07:44:13.837Z,19.93
2018-12-14T07:46:42.420Z,16.13
2018-12-14T07:49:10.947Z,17.97
2018-12-14T07:51:39.471Z,19.10
2018-12-14T07:54:08.905Z,17.63
2018-12-14T07:56:37.633Z,16.20
2018-12-14T07:59:06.434Z,18.73
2018-12-14T08:01:35.204Z,17.83
2018-12-14T08:04:03.754Z,20.13
2018-12-14T08:06:32.395Z,19.17
2018-12-14T08:09:00.954Z,17.37
2018-12-14T08:11:29.581Z,18.03
2018-12-14T08:13:58.326Z,20.10
2018-12-14T08:16:26.875Z,17.57
2018-12-14T08:18:55.452Z,20.63
2018-12-14T08:21:24.110Z,18.60
2018-12-14T08:23:52.605Z,19.03
2018-12-14T08:26:21.175Z,19.10
2018-12-14T08:28:49.750Z,18.77
2018-12-14T08:31:18.658Z,19.07
2018-12-14T08:33:47.179Z,23.47
2018-12-14T08:36:15.755Z,18.70
2018-12-14T08:38:44.294Z,18.87
2018-12-14T08:41:12.838Z,19.57
2018-12-14T08:43:41.861Z,17.77
2018-12-14T08:46:10.597Z,18.53
2018-12-14T08:48:39.160Z,17.97
2018-12-14T08:51:07.643Z,17.87
2018-12-14T08:53:36.338Z,21.47
2018-12-14T08:56:04.908Z,18.60
2018-12-14T08:58:33.466Z,19.43
2018-12-14T09:01:02.062Z,18.90
2018-12-14T09:03:30.855Z,18.60
2018-12-14T09:05:59.600Z,21.03
2018-12-14T09:08:28.635Z,21.77
2018-12-14T09:10:57.217Z,20.67
2018-12-14T09:13:25.725Z,20.83
2018-12-14T09:15:54.263Z,16.87
2018-12-14T09:18:22.874Z,21.43
2018-12-14T09:20:51.496Z,17.67
2018-12-14T09:23:20.158Z,21.50
2018-12-14T09:25:48.863Z,18.10
2018-12-14T09:28:17.714Z,22.77
2018-12-14T09:30:46.247Z,20.30
2018-12-14T09:33:18.836Z,19.30
2018-12-14T09:35:48.578Z,19.53
2018-12-14T09:38:17.234Z,19.60
2018-12-14T09:40:45.859Z,20.37
2018-12-14T09:43:14.600Z,21.97
2018-12-14T09:45:43.776Z,19.93
2018-12-14T09:48:12.425Z,18.67
2018-12-14T09:50:41.112Z,23.40
2018-12-14T09:53:11.765Z,20.70
2018-12-14T09:55:40.392Z,20.43
2018-12-14T09:58:08.886Z,21.67
2018-12-14T10:00:37.475Z,19.27
2018-12-14T10:03:06.163Z,19.10
2018-12-14T10:05:34.996Z,18.60
2018-12-14T10:08:03.839Z,16.73
2018-12-14T10:10:32.433Z,22.67
2018-12-14T10:13:01.422Z,21.53
2018-12-14T10:15:30.400Z,22.53
2018-12-14T10:17:59.325Z,19.07
2018-12-14T10:20:27.855Z,20.33
2018-12-14T10:22:56.429Z,19.20
2018-12-14T10:25:25.003Z,20.57
2018-12-14T10:27:53.603Z,22.83
2018-12-14T10:30:22.333Z,20.10
2018-12-14T10:32:50.874Z,21.60
2018-12-14T10:35:19.458Z,21.27
2018-12-14T10:37:48.143Z,19.63
2018-12-14T10:40:16.765Z,25.20
2018-12-14T10:42:45.375Z,23.90
2018-12-14T10:45:14.031Z,16.47
2018-12-14T10:47:42.764Z,20.93
2018-12-14T10:50:11.627Z,20.57
2018-12-14T10:52:40.279Z,19.40
2018-12-14T10:55:09.054Z,19.67
2018-12-14T10:57:37.767Z,21.10
2018-12-14T11:00:13.169Z,20.33
2018-12-14T11:02:41.695Z,19.13
2018-12-14T11:05:10.401Z,18.77
2018-12-14T11:07:38.933Z,20.47
2018-12-14T11:10:08.712Z,19.00
2018-12-14T11:12:37.225Z,22.13
2018-12-14T11:15:06.374Z,20.23
2018-12-14T11:17:34.903Z,18.33
2018-12-14T11:20:03.716Z,18.10
2018-12-14T11:22:32.237Z,24.07
2018-12-14T11:25:00.819Z,19.37
2018-12-14T11:27:29.431Z,19.33
2018-12-14T11:29:57.964Z,21.00
2018-12-14T11:32:26.560Z,19.90
2018-12-14T11:34:55.154Z,20.13
2018-12-14T11:37:24.128Z,19.13
2018-12-14T11:39:52.690Z,20.30
2018-12-14T11:42:21.245Z,19.27
2018-12-14T11:44:49.795Z,17.17
2018-12-14T11:47:18.416Z,18.07
2018-12-14T11:49:48.508Z,17.93
2018-12-14T11:52:17.332Z,20.97
2018-12-14T11:54:46.160Z,18.47
2018-12-14T11:57:14.740Z,21.53
2018-12-14T11:59:43.286Z,20.27
2018-12-14T12:02:12.730Z,19.53
2018-12-14T12:04:41.509Z,18.27
2018-12-14T12:07:10.078Z,20.43
2018-12-14T12:09:38.705Z,20.97
2018-12-14T12:12:07.290Z,17.63
2018-12-14T12:14:35.890Z,18.27
2018-12-14T12:17:04.601Z,19.53
2018-12-14T12:19:33.242Z,18.33
2018-12-14T12:22:01.983Z,19.10
2018-12-14T12:24:30.598Z,20.30
2018-12-14T12:26:59.184Z,18.33
2018-12-14T12:29:27.713Z,23.27
2018-12-14T12:31:56.235Z,21.63
2018-12-14T12:34:24.815Z,20.27
2018-12-14T12:36:53.429Z,17.83
2018-12-14T12:39:21.910Z,17.57
2018-12-14T12:41:50.528Z,17.77
2018-12-14T12:44:19.072Z,23.73
2018-12-14T12:46:47.941Z,23.33
2018-12-14T12:49:16.471Z,21.00
2018-12-14T12:51:45.323Z,20.93
2018-12-14T12:54:13.910Z,22.47
2018-12-14T12:56:42.587Z,22.10
2018-12-14T12:59:11.097Z,18.97
2018-12-14T13:01:39.948Z,22.03
2018-12-14T13:04:08.533Z,21.00
2018-12-14T13:06:37.094Z,19.70
2018-12-14T13:09:06.577Z,21.57
2018-12-14T13:11:35.390Z,19.93
2018-12-14T13:14:04.034Z,18.53
2018-12-14T13:16:32.771Z,20.67
2018-12-14T13:19:01.393Z,19.63
2018-12-14T13:21:30.190Z,18.90
2018-12-14T13:23:59.070Z,24.73
2018-12-14T13:26:27.802Z,21.37
2018-12-14T13:28:56.555Z,19.63
2018-12-14T13:31:25.232Z,23.33
2018-12-14T13:33:53.769Z,19.73
2018-12-14T13:36:22.289Z,20.27
2018-12-14T13:38:50.955Z,22.10
2018-12-14T13:41:19.577Z,18.97
2018-12-14T13:43:48.232Z,18.07
2018-12-14T13:46:16.803Z,19.43
2018-12-14T13:48:45.516Z,18.47
2018-12-14T13:51:14.031Z,23.93
2018-12-14T13:53:42.883Z,21.50
2018-12-14T13:59:09.671Z,22.60
2018-12-14T14:01:38.260Z,21.60
2018-12-14T14:04:06.839Z,17.83
2018-12-14T14:06:35.417Z,20.87
2018-12-14T14:09:04.713Z,18.77
2018-12-14T14:11:33.249Z,20.43
2018-12-14T14:14:01.869Z,20.80
2018-12-14T14:16:30.470Z,19.63
2018-12-14T14:18:59.020Z,19.77
2018-12-14T14:21:27.570Z,20.03
2018-12-14T14:23:56.189Z,21.30
2018-12-14T14:26:25.008Z,17.10
2018-12-14T14:28:53.560Z,20.63
2018-12-14T14:31:22.432Z,22.70
2018-12-14T14:33:51.751Z,22.40
2018-12-14T14:36:20.355Z,19.50
2018-12-14T14:38:48.924Z,20.20
2018-12-14T14:41:17.630Z,21.70
2018-12-14T14:43:46.139Z,20.63
2018-12-14T14:46:14.677Z,21.23
2018-12-14T14:48:43.212Z,21.13
2018-12-14T14:51:12.235Z,19.00
2018-12-14T14:53:40.859Z,21.37
2018-12-14T14:56:09.445Z,26.07
2018-12-14T14:58:37.988Z,24.10
2018-12-14T15:01:06.655Z,22.03
2018-12-14T15:03:35.163Z,21.70
2018-12-14T15:06:03.901Z,20.90
2018-12-14T15:08:32.430Z,24.47
2018-12-14T15:11:01.016Z,24.43
2018-12-14T15:13:30.481Z,21.07
2018-12-14T15:15:59.245Z,21.03
2018-12-14T15:18:27.907Z,21.37
2018-12-14T15:20:56.623Z,23.43
2018-12-14T15:23:25.193Z,24.73
2018-12-14T15:25:53.738Z,24.37
2018-12-14T15:28:22.284Z,20.97
2018-12-14T15:30:50.867Z,22.53
2018-12-14T15:33:19.446Z,22.73
2018-12-14T15:35:48.058Z,23.17
2018-12-14T15:38:16.648Z,20.60
2018-12-14T15:40:45.204Z,21.60
2018-12-14T15:43:13.786Z,21.73
2018-12-14T15:45:42.398Z,25.93
2018-12-14T15:55:08.516Z,19.63
2018-12-14T15:57:37.040Z,19.07
2018-12-14T16:00:06.491Z,21.20
2018-12-14T16:02:35.116Z,16.83
2018-12-14T16:05:03.884Z,22.50
2018-12-14T16:07:32.647Z,19.57
2018-12-14T16:10:01.246Z,19.87
2018-12-14T16:12:29.791Z,21.70
2018-12-14T16:14:58.307Z,17.47
2018-12-14T16:17:27.159Z,19.17
2018-12-14T16:19:55.763Z,20.77
2018-12-14T16:22:24.530Z,19.53
2018-12-14T16:24:53.123Z,18.30
2018-12-14T16:27:21.824Z,20.00
2018-12-14T16:29:50.442Z,19.63
2018-12-14T16:32:19.022Z,19.33
2018-12-14T16:34:54.253Z,18.77
2018-12-14T16:37:22.816Z,18.50
2018-12-14T16:39:51.324Z,18.87
2018-12-14T16:42:19.934Z,22.57
2018-12-14T16:44:48.487Z,21.30
2018-12-14T16:47:17.053Z,21.30
2018-12-14T16:49:45.630Z,18.93
2018-12-14T16:52:14.156Z,21.10
2018-12-14T16:54:42.687Z,23.37
2018-12-14T16:57:11.331Z,18.37
2018-12-14T16:59:39.855Z,19.17
2018-12-14T17:02:08.527Z,20.63
2018-12-14T17:04:37.100Z,22.53
2018-12-14T17:07:05.937Z,20.30
2018-12-14T17:09:34.590Z,22.17
2018-12-14T17:12:03.206Z,17.40
2018-12-14T17:14:31.836Z,19.53
2018-12-14T17:17:00.396Z,18.90
2018-12-14T17:19:28.918Z,19.03
2018-12-14T17:21:57.513Z,18.53
2018-12-14T17:24:26.170Z,20.77
2018-12-14T17:26:54.807Z,20.47
2018-12-14T17:29:23.365Z,19.90
2018-12-14T17:31:51.975Z,20.83
2018-12-14T17:34:20.551Z,19.97
2018-12-14T17:36:49.292Z,19.53
2018-12-14T17:39:17.900Z,20.87
2018-12-14T17:41:46.454Z,19.37
2018-12-14T17:44:14.988Z,22.03
2018-12-14T17:46:43.711Z,22.30
2018-12-14T17:49:12.287Z,22.33
2018-12-14T17:51:41.102Z,21.53
2018-12-14T17:54:09.791Z,21.50
2018-12-14T17:56:38.375Z,22.63
2018-12-14T17:59:06.959Z,22.27
2018-12-14T18:01:35.647Z,23.73
2018-12-14T18:04:04.195Z,20.33
2018-12-14T18:06:32.812Z,21.73
2018-12-14T18:09:01.347Z,23.20
2018-12-14T18:11:31.791Z,20.47
2018-12-14T18:14:00.387Z,20.63
2018-12-14T18:16:29.416Z,21.10
2018-12-14T18:18:58.060Z,19.53
2018-12-14T18:21:26.715Z,23.03
2018-12-14T18:23:55.615Z,21.97
2018-12-14T18:26:24.227Z,21.10
2018-12-14T18:28:52.805Z,20.60
2018-12-14T18:31:21.388Z,21.83
2018-12-14T18:33:49.978Z,19.40
2018-12-14T18:36:18.522Z,21.50
2018-12-14T18:38:47.069Z,20.83
2018-12-14T18:41:15.681Z,21.97
2018-12-14T18:43:45.338Z,22.07
2018-12-14T18:46:14.093Z,20.70
2018-12-14T18:48:42.663Z,23.00
2018-12-14T18:51:11.260Z,18.87
2018-12-14T18:53:41.859Z,20.87
2018-12-14T18:56:10.512Z,22.27
2018-12-14T18:58:39.058Z,21.57
2018-12-14T19:01:07.640Z,24.00
2018-12-14T19:03:36.409Z,20.00
2018-12-14T19:06:05.037Z,19.67
2018-12-14T19:08:33.553Z,22.93
2018-12-14T19:11:02.132Z,21.00
2018-12-14T19:13:30.684Z,24.80
2018-12-14T19:15:59.779Z,23.10
2018-12-14T19:18:28.571Z,22.67
2018-12-14T19:20:57.208Z,24.63
2018-12-14T19:23:25.766Z,19.77
2018-12-14T19:25:54.473Z,24.93
2018-12-14T19:28:23.034Z,23.57
2018-12-14T19:30:51.620Z,21.80
2018-12-14T19:33:20.123Z,24.23
2018-12-14T19:35:48.741Z,24.57
2018-12-14T19:38:17.374Z,23.03
2018-12-14T19:40:46.002Z,22.60
2018-12-14T19:43:14.563Z,24.73
2018-12-14T19:45:43.391Z,23.03
2018-12-14T19:48:11.991Z,22.93
2018-12-14T19:50:40.538Z,21.10
2018-12-14T19:53:09.257Z,23.03
2018-12-14T19:55:37.909Z,20.27
2018-12-14T19:58:06.699Z,24.37
2018-12-14T20:00:35.299Z,23.30
2018-12-14T20:03:03.908Z,24.57
2018-12-14T20:05:32.463Z,22.53
2018-12-14T20:08:01.007Z,23.63
2018-12-14T20:10:29.698Z,20.53
2018-12-14T20:12:58.277Z,22.17
2018-12-14T20:15:27.303Z,22.17
2018-12-14T20:17:55.953Z,25.57
2018-12-14T20:20:24.455Z,21.57
2018-12-14T20:22:53.450Z,23.27
2018-12-14T20:25:22.668Z,21.67
2018-12-14T20:27:51.175Z,23.17
2018-12-14T20:30:19.747Z,24.83
2018-12-14T20:32:48.271Z,21.50
2018-12-14T20:35:18.019Z,22.17
2018-12-14T20:37:47.221Z,25.87
2018-12-14T20:40:16.100Z,22.67
2018-12-14T20:42:44.662Z,20.17
2018-12-14T20:45:13.387Z,20.43
2018-12-14T20:47:41.940Z,22.60
2018-12-14T20:50:10.588Z,26.10
2018-12-14T20:52:39.380Z,22.83
2018-12-14T20:55:09.785Z,22.27
2018-12-14T20:57:38.375Z,22.83
2018-12-14T21:00:09.547Z,23.37
2018-12-14T21:02:38.199Z,20.73
2018-12-14T21:05:10.343Z,23.27
2018-12-14T21:07:38.879Z,22.80
2018-12-14T21:10:08.516Z,22.93
2018-12-14T21:12:37.177Z,22.97
2018-12-14T21:15:07.144Z,24.07
2018-12-14T21:17:35.713Z,19.77
2018-12-14T21:20:04.970Z,25.50
2018-12-14T21:22:33.519Z,24.93
2018-12-14T21:25:02.075Z,25.73
2018-12-14T21:27:30.692Z,19.93
2018-12-14T21:29:59.383Z,20.77
2018-12-14T21:32:27.929Z,23.67
2018-12-14T21:34:56.716Z,22.13
2018-12-14T21:37:25.362Z,22.47
2018-12-14T21:39:53.906Z,24.67
2018-12-14T21:42:22.461Z,23.50
2018-12-14T21:44:51.034Z,21.93
2018-12-14T21:47:19.637Z,21.67
2018-12-14T21:49:48.245Z,23.80
2018-12-14T21:52:16.893Z,21.67
2018-12-14T21:54:45.556Z,20.63
2018-12-14T21:57:14.171Z,22.60
2018-12-14T21:59:42.774Z,23.93
2018-12-14T22:02:11.536Z,22.13
2018-12-14T22:04:40.156Z,21.60
2018-12-14T22:07:09.087Z,22.47
2018-12-14T22:09:37.606Z,20.37
2018-12-14T22:12:06.289Z,20.73
2018-12-14T22:14:34.832Z,21.27
2018-12-14T22:17:03.838Z,22.43
2018-12-14T22:19:32.409Z,23.10
2018-12-14T22:22:00.971Z,21.23
2018-12-14T22:24:29.518Z,17.93
2018-12-14T22:26:58.296Z,25.67
2018-12-14T22:29:27.249Z,24.67
2018-12-14T22:31:56.187Z,21.93
2018-12-14T22:34:24.754Z,21.33
2018-12-14T22:36:53.332Z,23.80
2018-12-14T22:39:22.525Z,24.77
2018-12-14T22:41:51.073Z,21.77
2018-12-14T22:44:21.535Z,21.53
2018-12-14T22:46:50.271Z,21.90
2018-12-14T22:49:18.853Z,26.07
2018-12-14T22:51:47.490Z,22.20
2018-12-14T22:54:16.105Z,23.67
2018-12-14T22:56:44.748Z,20.30
2018-12-14T22:59:13.297Z,19.77
2018-12-14T23:01:41.904Z,22.30
2018-12-14T23:04:10.488Z,20.83
2018-12-14T23:06:39.101Z,22.67
2018-12-14T23:09:08.137Z,22.03
2018-12-14T23:11:36.818Z,24.93
2018-12-14T23:14:05.503Z,21.67
2018-12-14T23:16:34.033Z,20.27
2018-12-14T23:19:02.584Z,22.43
2018-12-14T23:21:31.104Z,24.73
2018-12-14T23:23:59.689Z,24.10
2018-12-14T23:26:28.294Z,23.73
2018-12-14T23:28:56.881Z,20.60
2018-12-14T23:31:25.646Z,24.20
2018-12-14T23:33:54.150Z,25.13
2018-12-14T23:36:22.717Z,23.83
2018-12-14T23:38:51.288Z,27.07
2018-12-14T23:41:20.058Z,22.93
2018-12-14T23:43:48.610Z,24.13
2018-12-14T23:46:17.247Z,22.53
2018-12-14T23:48:45.845Z,21.00
2018-12-14T23:51:14.842Z,25.70
2018-12-14T23:53:43.402Z,26.47
2018-12-14T23:56:12.170Z,23.17
2018-12-14T23:58:40.802Z,23.83
